createdAt,value
2018-03-07T00:00:24.200Z,968.03
2018-03-07T00:01:24.192Z,968.09
2018-03-07T00:02:24.188Z,968.04
2018-03-07T00:03:24.182Z,968.06
2018-03-07T00:04:24.172Z,968.04
2018-03-07T00:05:24.167Z,968.07
2018-03-07T00:06:24.161Z,968.06
2018-03-07T00:07:24.161Z,968.07
2018-03-07T00:08:24.149Z,968.1
2018-03-07T00:09:24.158Z,968.09
2018-03-07T00:10:24.138Z,968.05
2018-03-07T00:11:24.128Z,968.11
2018-03-07T00:12:24.119Z,968.14
2018-03-07T00:13:24.257Z,968.16
2018-03-07T00:14:24.105Z,968.14
2018-03-07T00:15:24.111Z,968.19
2018-03-07T00:16:24.153Z,968.18
2018-03-07T00:17:24.123Z,968.13
2018-03-07T00:18:24.091Z,968.19
2018-03-07T00:19:24.076Z,968.2
2018-03-07T00:20:24.067Z,968.22
2018-03-07T00:21:24.062Z,968.2
2018-03-07T00:22:24.052Z,968.18
2018-03-07T00:23:24.049Z,968.23
2018-03-07T00:24:24.052Z,968.23
2018-03-07T00:25:24.049Z,968.26
2018-03-07T00:26:24.034Z,968.23
2018-03-07T00:27:24.022Z,968.22
2018-03-07T00:28:24.016Z,968.24
2018-03-07T00:29:24.009Z,968.29
2018-03-07T00:30:24.004Z,968.29
2018-03-07T00:31:23.996Z,968.3
2018-03-07T00:32:23.983Z,968.28
2018-03-07T00:33:23.976Z,968.29
2018-03-07T00:34:23.969Z,968.28
2018-03-07T00:35:23.966Z,968.32
2018-03-07T00:36:23.956Z,968.33
2018-03-07T00:37:23.955Z,968.3
2018-03-07T00:38:23.941Z,968.31
2018-03-07T00:39:23.956Z,968.35
2018-03-07T00:40:23.927Z,968.3
2018-03-07T00:41:23.930Z,968.35
2018-03-07T00:42:23.913Z,968.36
2018-03-07T00:44:58.338Z,968.28
2018-03-07T00:46:23.996Z,968.33
2018-03-07T00:46:58.316Z,968.39
2018-03-07T00:47:58.309Z,968.34
2018-03-07T00:48:58.310Z,968.32
2018-03-07T00:50:11.088Z,968.33
2018-03-07T00:50:58.292Z,968.35
2018-03-07T00:51:58.293Z,968.35
2018-03-07T00:53:00.375Z,968.34
2018-03-07T00:53:58.266Z,968.34
2018-03-07T00:54:58.259Z,968.32
2018-03-07T00:55:58.251Z,968.35
2018-03-07T00:56:58.250Z,968.32
2018-03-07T00:57:58.238Z,968.37
2018-03-07T00:58:58.232Z,968.35
2018-03-07T00:59:58.248Z,968.37
2018-03-07T01:00:58.239Z,968.4
2018-03-07T01:01:58.225Z,968.33
2018-03-07T01:02:58.220Z,968.38
2018-03-07T01:03:58.194Z,968.38
2018-03-07T01:04:58.193Z,968.38
2018-03-07T01:05:58.184Z,968.39
2018-03-07T01:06:58.204Z,968.4
2018-03-07T01:07:58.173Z,968.4
2018-03-07T01:08:58.158Z,968.41
2018-03-07T01:09:58.163Z,968.4
2018-03-07T01:10:58.157Z,968.4
2018-03-07T01:11:58.135Z,968.35
2018-03-07T01:12:58.128Z,968.38
2018-03-07T01:13:58.120Z,968.38
2018-03-07T01:14:58.117Z,968.35
2018-03-07T01:15:58.106Z,968.38
2018-03-07T01:16:58.101Z,968.39
2018-03-07T01:17:58.096Z,968.36
2018-03-07T01:18:58.084Z,968.39
2018-03-07T01:19:58.079Z,968.35
2018-03-07T01:20:58.102Z,968.35
2018-03-07T01:21:58.072Z,968.33
2018-03-07T01:22:58.057Z,968.4
2018-03-07T01:23:58.044Z,968.42
2018-03-07T01:24:58.037Z,968.38
2018-03-07T01:25:58.029Z,968.35
2018-03-07T01:26:58.023Z,968.34
2018-03-07T01:27:58.014Z,968.36
2018-03-07T01:28:58.006Z,968.39
2018-03-07T01:29:58.015Z,968.4
2018-03-07T01:30:58.048Z,968.41
2018-03-07T01:31:57.982Z,968.38
2018-03-07T01:32:57.975Z,968.39
2018-03-07T01:33:57.967Z,968.36
2018-03-07T01:34:57.960Z,968.38
2018-03-07T01:35:57.955Z,968.35
2018-03-07T01:36:57.945Z,968.37
2018-03-07T01:37:57.940Z,968.35
2018-03-07T01:38:57.929Z,968.35
2018-03-07T01:39:57.919Z,968.33
2018-03-07T01:40:57.912Z,968.37
2018-03-07T01:41:57.903Z,968.37
2018-03-07T01:42:57.899Z,968.33
2018-03-07T01:43:57.889Z,968.34
2018-03-07T01:44:57.879Z,968.33
2018-03-07T01:45:57.874Z,968.31
2018-03-07T01:46:57.871Z,968.31
2018-03-07T01:47:57.854Z,968.32
2018-03-07T01:48:57.848Z,968.31
2018-03-07T01:49:57.846Z,968.32
2018-03-07T01:50:57.842Z,968.28
2018-03-07T01:51:57.845Z,968.33
2018-03-07T01:52:57.814Z,968.29
2018-03-07T01:53:57.806Z,968.29
2018-03-07T01:54:57.797Z,968.27
2018-03-07T01:55:57.789Z,968.29
2018-03-07T01:56:57.789Z,968.32
2018-03-07T01:57:57.790Z,968.34
2018-03-07T01:58:57.764Z,968.31
2018-03-07T01:59:57.756Z,968.32
2018-03-07T02:00:57.747Z,968.33
2018-03-07T02:01:57.743Z,968.26
2018-03-07T02:02:57.732Z,968.3
2018-03-07T02:03:57.723Z,968.29
2018-03-07T02:04:57.714Z,968.29
2018-03-07T02:05:57.706Z,968.31
2018-03-07T02:06:57.702Z,968.34
2018-03-07T02:07:57.689Z,968.34
2018-03-07T02:08:59.736Z,968.32
2018-03-07T02:09:57.673Z,968.36
2018-03-07T02:10:57.682Z,968.33
2018-03-07T02:11:57.656Z,968.33
2018-03-07T02:12:57.650Z,968.33
2018-03-07T02:13:57.639Z,968.34
2018-03-07T02:14:57.633Z,968.33
2018-03-07T02:15:57.623Z,968.33
2018-03-07T02:16:57.614Z,968.32
2018-03-07T02:17:57.616Z,968.34
2018-03-07T02:18:57.598Z,968.31
2018-03-07T02:19:57.595Z,968.3
2018-03-07T02:20:57.588Z,968.3
2018-03-07T02:21:57.573Z,968.35
2018-03-07T02:22:57.566Z,968.34
2018-03-07T02:23:57.555Z,968.34
2018-03-07T02:24:57.547Z,968.37
2018-03-07T02:25:57.538Z,968.39
2018-03-07T02:26:57.530Z,968.38
2018-03-07T02:27:57.521Z,968.36
2018-03-07T02:28:57.512Z,968.33
2018-03-07T02:29:57.514Z,968.36
2018-03-07T02:30:57.495Z,968.37
2018-03-07T02:31:57.486Z,968.38
2018-03-07T02:32:57.481Z,968.41
2018-03-07T02:33:57.469Z,968.41
2018-03-07T02:34:57.468Z,968.41
2018-03-07T02:35:57.458Z,968.46
2018-03-07T02:36:57.442Z,968.45
2018-03-07T02:37:57.434Z,968.44
2018-03-07T02:38:57.429Z,968.44
2018-03-07T02:39:57.416Z,968.41
2018-03-07T02:40:57.416Z,968.45
2018-03-07T02:41:57.400Z,968.42
2018-03-07T02:42:57.395Z,968.39
2018-03-07T02:43:57.381Z,968.41
2018-03-07T02:44:57.380Z,968.44
2018-03-07T02:45:57.363Z,968.41
2018-03-07T02:46:57.354Z,968.41
2018-03-07T02:47:57.351Z,968.46
2018-03-07T02:48:57.413Z,968.44
2018-03-07T02:49:57.419Z,968.42
2018-03-07T02:50:57.320Z,968.44
2018-03-07T02:51:57.310Z,968.44
2018-03-07T02:52:57.301Z,968.46
2018-03-07T02:53:57.350Z,968.52
2018-03-07T02:54:57.285Z,968.5
2018-03-07T02:55:57.278Z,968.52
2018-03-07T02:56:57.271Z,968.55
2018-03-07T02:57:57.264Z,968.6
2018-03-07T02:58:57.249Z,968.54
2018-03-07T02:59:57.244Z,968.55
2018-03-07T03:00:57.241Z,968.56
2018-03-07T03:01:57.229Z,968.57
2018-03-07T03:02:57.225Z,968.54
2018-03-07T03:03:57.204Z,968.55
2018-03-07T03:04:57.195Z,968.58
2018-03-07T03:05:57.231Z,968.6
2018-03-07T03:06:57.182Z,968.56
2018-03-07T03:07:57.168Z,968.59
2018-03-07T03:08:57.185Z,968.6
2018-03-07T03:09:57.401Z,968.63
2018-03-07T03:10:57.139Z,968.65
2018-03-07T03:11:57.131Z,968.62
2018-03-07T03:12:57.129Z,968.62
2018-03-07T03:13:57.115Z,968.61
2018-03-07T03:14:57.181Z,968.65
2018-03-07T03:15:57.099Z,968.68
2018-03-07T03:16:57.086Z,968.66
2018-03-07T03:17:57.076Z,968.66
2018-03-07T03:18:57.077Z,968.63
2018-03-07T03:19:57.864Z,968.65
2018-03-07T03:20:57.059Z,968.67
2018-03-07T03:21:57.040Z,968.65
2018-03-07T03:22:57.031Z,968.63
2018-03-07T03:23:57.028Z,968.65
2018-03-07T03:24:57.013Z,968.64
2018-03-07T03:25:57.006Z,968.61
2018-03-07T03:26:56.994Z,968.62
2018-03-07T03:27:56.985Z,968.59
2018-03-07T03:28:56.977Z,968.6
2018-03-07T03:29:56.966Z,968.64
2018-03-07T03:30:57.011Z,968.63
2018-03-07T03:31:56.952Z,968.63
2018-03-07T03:32:56.945Z,968.65
2018-03-07T03:33:56.931Z,968.64
2018-03-07T03:34:56.921Z,968.69
2018-03-07T03:35:56.913Z,968.66
2018-03-07T03:36:56.906Z,968.66
2018-03-07T03:37:56.894Z,968.67
2018-03-07T03:38:56.886Z,968.65
2018-03-07T03:39:56.878Z,968.68
2018-03-07T03:40:56.976Z,968.73
2018-03-07T03:41:56.856Z,968.74
2018-03-07T03:42:56.848Z,968.71
2018-03-07T03:43:56.837Z,968.69
2018-03-07T03:44:56.831Z,968.68
2018-03-07T03:45:56.820Z,968.74
2018-03-07T03:46:56.810Z,968.74
2018-03-07T03:47:56.801Z,968.7
2018-03-07T03:48:56.798Z,968.73
2018-03-07T03:49:56.781Z,968.74
2018-03-07T03:50:56.772Z,968.76
2018-03-07T03:51:56.770Z,968.74
2018-03-07T03:52:56.759Z,968.7
2018-03-07T03:53:56.746Z,968.74
2018-03-07T03:54:56.744Z,968.76
2018-03-07T03:55:56.730Z,968.75
2018-03-07T03:56:56.717Z,968.73
2018-03-07T03:57:56.708Z,968.74
2018-03-07T03:58:56.710Z,968.72
2018-03-07T03:59:56.688Z,968.72
2018-03-07T04:00:56.678Z,968.75
2018-03-07T04:01:56.672Z,968.73
2018-03-07T04:02:56.660Z,968.72
2018-03-07T04:03:56.651Z,968.65
2018-03-07T04:04:56.647Z,968.68
2018-03-07T04:05:56.635Z,968.66
2018-03-07T04:06:56.624Z,968.67
2018-03-07T04:07:56.615Z,968.63
2018-03-07T04:08:56.608Z,968.67
2018-03-07T04:09:56.595Z,968.68
2018-03-07T04:10:56.885Z,968.66
2018-03-07T04:11:56.575Z,968.69
2018-03-07T04:12:56.566Z,968.66
2018-03-07T04:13:56.556Z,968.67
2018-03-07T04:14:56.553Z,968.67
2018-03-07T04:15:56.537Z,968.73
2018-03-07T04:16:56.528Z,968.68
2018-03-07T04:17:56.519Z,968.73
2018-03-07T04:18:56.511Z,968.77
2018-03-07T04:19:56.502Z,968.74
2018-03-07T04:20:56.492Z,968.81
2018-03-07T04:21:56.484Z,968.81
2018-03-07T04:22:56.471Z,968.82
2018-03-07T04:23:56.462Z,968.89
2018-03-07T04:24:56.452Z,968.88
2018-03-07T04:25:56.444Z,968.87
2018-03-07T04:26:56.436Z,968.88
2018-03-07T04:27:56.423Z,968.87
2018-03-07T04:28:56.414Z,968.84
2018-03-07T04:29:56.405Z,968.87
2018-03-07T04:30:56.396Z,968.87
2018-03-07T04:31:56.386Z,968.89
2018-03-07T04:32:56.378Z,968.83
2018-03-07T04:33:56.367Z,968.91
2018-03-07T04:34:56.367Z,968.89
2018-03-07T04:35:56.395Z,968.91
2018-03-07T04:36:56.345Z,968.89
2018-03-07T04:37:56.344Z,968.93
2018-03-07T04:38:56.324Z,968.91
2018-03-07T04:39:56.319Z,968.9
2018-03-07T04:40:56.318Z,968.93
2018-03-07T04:41:56.303Z,968.91
2018-03-07T04:42:56.300Z,968.92
2018-03-07T04:43:56.282Z,968.94
2018-03-07T04:44:56.274Z,968.95
2018-03-07T04:45:56.273Z,969
2018-03-07T04:46:56.250Z,968.98
2018-03-07T04:47:56.255Z,969
2018-03-07T04:48:56.247Z,968.98
2018-03-07T04:49:56.230Z,968.99
2018-03-07T04:50:56.231Z,968.99
2018-03-07T04:51:56.212Z,969.01
2018-03-07T04:52:56.201Z,969
2018-03-07T04:53:56.211Z,969.01
2018-03-07T04:54:56.188Z,969.03
2018-03-07T04:55:56.178Z,969.05
2018-03-07T04:56:56.167Z,969.05
2018-03-07T04:57:56.172Z,969.05
2018-03-07T04:58:56.157Z,969.09
2018-03-07T04:59:56.153Z,969.07
2018-03-07T05:00:56.219Z,969.07
2018-03-07T05:01:56.130Z,969.07
2018-03-07T05:02:56.118Z,969.08
2018-03-07T05:03:56.103Z,969.12
2018-03-07T05:04:56.089Z,969.14
2018-03-07T05:05:56.107Z,969.17
2018-03-07T05:06:56.094Z,969.17
2018-03-07T05:07:56.062Z,969.22
2018-03-07T05:08:56.059Z,969.21
2018-03-07T05:09:56.053Z,969.14
2018-03-07T05:10:56.043Z,969.15
2018-03-07T05:11:56.033Z,969.19
2018-03-07T05:12:56.029Z,969.16
2018-03-07T05:13:56.015Z,969.14
2018-03-07T05:14:55.999Z,969.2
2018-03-07T05:15:55.991Z,969.15
2018-03-07T05:16:55.984Z,969.14
2018-03-07T05:17:55.975Z,969.08
2018-03-07T05:18:55.968Z,969.15
2018-03-07T05:19:55.957Z,969.14
2018-03-07T05:20:55.950Z,969.12
2018-03-07T05:21:55.940Z,969.15
2018-03-07T05:22:55.932Z,969.17
2018-03-07T05:23:55.926Z,969.18
2018-03-07T05:24:55.916Z,969.23
2018-03-07T05:25:55.907Z,969.17
2018-03-07T05:26:55.898Z,969.2
2018-03-07T05:27:55.891Z,969.23
2018-03-07T05:28:55.888Z,969.26
2018-03-07T05:29:55.872Z,969.22
2018-03-07T05:30:55.864Z,969.21
2018-03-07T05:31:55.856Z,969.24
2018-03-07T05:32:55.848Z,969.25
2018-03-07T05:33:55.841Z,969.23
2018-03-07T05:34:55.831Z,969.26
2018-03-07T05:35:55.821Z,969.22
2018-03-07T05:36:55.814Z,969.23
2018-03-07T05:37:55.805Z,969.23
2018-03-07T05:38:55.799Z,969.26
2018-03-07T05:39:55.788Z,969.27
2018-03-07T05:40:55.780Z,969.29
2018-03-07T05:41:56.822Z,969.29
2018-03-07T05:42:55.767Z,969.33
2018-03-07T05:43:55.770Z,969.34
2018-03-07T05:44:55.746Z,969.4
2018-03-07T05:45:55.739Z,969.37
2018-03-07T05:46:55.729Z,969.41
2018-03-07T05:47:55.721Z,969.41
2018-03-07T05:48:55.714Z,969.45
2018-03-07T05:49:55.712Z,969.42
2018-03-07T05:50:55.695Z,969.44
2018-03-07T05:51:55.688Z,969.38
2018-03-07T05:52:55.678Z,969.38
2018-03-07T05:53:55.672Z,969.39
2018-03-07T05:54:55.661Z,969.4
2018-03-07T05:55:55.657Z,969.43
2018-03-07T05:56:55.647Z,969.43
2018-03-07T05:57:55.637Z,969.44
2018-03-07T05:58:55.632Z,969.51
2018-03-07T05:59:55.621Z,969.49
2018-03-07T06:00:55.629Z,969.47
2018-03-07T06:01:55.604Z,969.46
2018-03-07T06:02:55.596Z,969.51
2018-03-07T06:03:55.588Z,969.47
2018-03-07T06:04:55.584Z,969.54
2018-03-07T06:05:55.571Z,969.53
2018-03-07T06:06:55.576Z,969.65
2018-03-07T06:07:55.556Z,969.68
2018-03-07T06:08:55.547Z,969.7
2018-03-07T06:09:55.539Z,969.66
2018-03-07T06:10:55.530Z,969.67
2018-03-07T06:11:55.530Z,969.67
2018-03-07T06:12:55.514Z,969.71
2018-03-07T06:13:55.505Z,969.71
2018-03-07T06:14:55.503Z,969.71
2018-03-07T06:15:55.491Z,969.74
2018-03-07T06:16:55.482Z,969.74
2018-03-07T06:17:55.479Z,969.75
2018-03-07T06:18:55.493Z,969.77
2018-03-07T06:28:05.311Z,969.88
2018-03-07T06:29:05.052Z,969.86
2018-03-07T06:30:05.042Z,969.89
2018-03-07T06:31:05.025Z,969.9
2018-03-07T06:32:05.015Z,969.96
2018-03-07T06:33:05.304Z,969.94
2018-03-07T06:34:05.016Z,969.98
2018-03-07T06:35:04.986Z,970.01
2018-03-07T06:36:04.976Z,970.06
2018-03-07T06:37:04.968Z,970.01
2018-03-07T06:38:05.212Z,970.07
2018-03-07T06:39:04.949Z,970.09
2018-03-07T06:40:04.940Z,970.05
2018-03-07T06:41:04.948Z,970.04
2018-03-07T06:42:04.925Z,970.08
2018-03-07T06:43:06.771Z,970.05
2018-03-07T06:44:04.906Z,970.06
2018-03-07T06:45:04.901Z,970.03
2018-03-07T06:46:04.894Z,970.09
2018-03-07T06:47:04.881Z,970.12
2018-03-07T06:48:04.873Z,970.12
2018-03-07T06:49:04.864Z,970.09
2018-03-07T06:50:04.858Z,970.13
2018-03-07T06:51:04.848Z,970.14
2018-03-07T06:52:04.845Z,970.17
2018-03-07T06:53:04.833Z,970.15
2018-03-07T06:54:04.824Z,970.16
2018-03-07T06:55:04.817Z,970.18
2018-03-07T06:56:04.810Z,970.2
2018-03-07T06:57:04.804Z,970.21
2018-03-07T06:58:04.794Z,970.21
2018-03-07T06:59:04.788Z,970.25
2018-03-07T07:00:04.779Z,970.24
2018-03-07T07:01:04.771Z,970.29
2018-03-07T07:02:04.764Z,970.31
2018-03-07T07:03:04.757Z,970.31
2018-03-07T07:04:04.748Z,970.31
2018-03-07T07:05:04.744Z,970.37
2018-03-07T07:06:04.736Z,970.4
2018-03-07T07:07:04.727Z,970.42
2018-03-07T07:08:04.742Z,970.44
2018-03-07T07:09:04.719Z,970.47
2018-03-07T07:10:04.708Z,970.51
2018-03-07T07:11:04.695Z,970.52
2018-03-07T07:12:04.687Z,970.52
2018-03-07T07:13:04.682Z,970.56
2018-03-07T07:14:04.685Z,970.55
2018-03-07T07:15:04.665Z,970.58
2018-03-07T07:16:04.656Z,970.61
2018-03-07T07:17:04.653Z,970.64
2018-03-07T07:18:04.651Z,970.67
2018-03-07T07:19:04.990Z,970.71
2018-03-07T07:20:04.637Z,970.7
2018-03-07T07:21:04.640Z,970.73
2018-03-07T07:22:04.653Z,970.73
2018-03-07T07:23:04.604Z,970.74
2018-03-07T07:24:04.601Z,970.8
2018-03-07T07:25:04.591Z,970.74
2018-03-07T07:26:04.592Z,970.73
2018-03-07T07:27:04.576Z,970.74
2018-03-07T07:28:04.572Z,970.79
2018-03-07T07:29:04.561Z,970.79
2018-03-07T07:30:04.554Z,970.8
2018-03-07T07:31:04.545Z,970.82
2018-03-07T07:32:04.545Z,970.85
2018-03-07T07:33:04.533Z,970.84
2018-03-07T07:34:04.537Z,970.86
2018-03-07T07:35:04.545Z,970.9
2018-03-07T07:36:04.511Z,970.87
2018-03-07T07:37:04.510Z,970.91
2018-03-07T07:38:04.497Z,970.89
2018-03-07T07:39:04.489Z,970.93
2018-03-07T07:40:04.482Z,970.89
2018-03-07T07:41:04.476Z,970.89
2018-03-07T07:42:04.472Z,970.84
2018-03-07T07:43:04.473Z,970.87
2018-03-07T07:44:04.458Z,970.91
2018-03-07T07:45:04.447Z,970.92
2018-03-07T07:46:04.452Z,970.91
2018-03-07T07:47:04.436Z,970.91
2018-03-07T07:48:04.426Z,970.92
2018-03-07T07:49:04.419Z,970.98
2018-03-07T07:50:04.413Z,970.99
2018-03-07T07:51:04.407Z,971.01
2018-03-07T07:52:04.408Z,970.95
2018-03-07T07:53:04.395Z,970.99
2018-03-07T07:54:04.388Z,971
2018-03-07T07:55:04.380Z,970.97
2018-03-07T07:56:04.376Z,970.99
2018-03-07T07:57:04.368Z,971.02
2018-03-07T07:58:04.362Z,970.98
2018-03-07T07:59:04.356Z,971.03
2018-03-07T08:00:05.129Z,971.04
2018-03-07T08:01:04.343Z,971.08
2018-03-07T08:02:04.338Z,971.09
2018-03-07T08:03:04.333Z,971.07
2018-03-07T08:04:04.327Z,971.08
2018-03-07T08:05:04.320Z,971.06
2018-03-07T08:06:04.315Z,971.09
2018-03-07T08:07:04.308Z,971.09
2018-03-07T08:08:04.303Z,971.08
2018-03-07T08:09:04.300Z,971.08
2018-03-07T08:10:04.295Z,971.09
2018-03-07T08:11:04.285Z,971.14
2018-03-07T08:12:04.301Z,971.2
2018-03-07T08:13:04.275Z,971.29
2018-03-07T08:14:04.270Z,971.24
2018-03-07T08:15:04.265Z,971.22
2018-03-07T08:16:04.260Z,971.25
2018-03-07T08:17:04.257Z,971.31
2018-03-07T08:18:04.315Z,971.23
2018-03-07T08:19:04.247Z,971.23
2018-03-07T08:20:04.240Z,971.26
2018-03-07T08:21:04.233Z,971.3
2018-03-07T08:22:04.237Z,971.29
2018-03-07T08:23:04.225Z,971.28
2018-03-07T08:24:04.219Z,971.28
2018-03-07T08:25:04.214Z,971.32
2018-03-07T08:26:04.210Z,971.42
2018-03-07T08:27:04.207Z,971.4
2018-03-07T08:28:04.202Z,971.44
2018-03-07T08:29:04.197Z,971.44
2018-03-07T08:30:04.195Z,971.47
2018-03-07T08:31:04.190Z,971.44
2018-03-07T08:32:04.184Z,971.44
2018-03-07T08:33:04.180Z,971.43
2018-03-07T08:34:04.187Z,971.44
2018-03-07T08:35:04.168Z,971.49
2018-03-07T08:36:04.166Z,971.43
2018-03-07T08:37:04.162Z,971.42
2018-03-07T08:38:04.156Z,971.45
2018-03-07T08:39:04.155Z,971.45
2018-03-07T08:40:04.149Z,971.46
2018-03-07T08:41:04.145Z,971.45
2018-03-07T08:42:04.141Z,971.48
2018-03-07T08:43:04.135Z,971.41
2018-03-07T08:44:04.132Z,971.41
2018-03-07T08:45:04.128Z,971.51
2018-03-07T08:46:05.727Z,971.47
2018-03-07T08:47:04.120Z,971.46
2018-03-07T08:48:04.116Z,971.46
2018-03-07T08:49:04.114Z,971.54
2018-03-07T08:50:04.109Z,971.62
2018-03-07T08:51:04.104Z,971.52
2018-03-07T08:52:04.102Z,971.57
2018-03-07T08:53:04.098Z,971.56
2018-03-07T08:54:04.095Z,971.53
2018-03-07T08:55:04.092Z,971.54
2018-03-07T08:56:04.095Z,971.53
2018-03-07T08:57:04.084Z,971.5
2018-03-07T08:58:04.080Z,971.44
2018-03-07T08:59:04.080Z,971.41
2018-03-07T09:00:04.073Z,971.44
2018-03-07T09:01:04.074Z,971.48
2018-03-07T09:02:04.066Z,971.45
2018-03-07T09:03:04.062Z,971.42
2018-03-07T09:04:04.060Z,971.48
2018-03-07T09:05:04.062Z,971.59
2018-03-07T09:06:04.053Z,971.53
2018-03-07T09:07:04.050Z,971.48
2018-03-07T09:08:04.045Z,971.48
2018-03-07T09:09:04.040Z,971.52
2018-03-07T09:10:04.037Z,971.52
2018-03-07T09:11:04.032Z,971.5
2018-03-07T09:12:04.036Z,971.42
2018-03-07T09:13:04.028Z,971.46
2018-03-07T09:14:04.025Z,971.48
2018-03-07T09:15:04.020Z,971.45
2018-03-07T09:16:04.018Z,971.47
2018-03-07T09:17:04.013Z,971.57
2018-03-07T09:18:04.010Z,971.66
2018-03-07T09:19:04.010Z,971.6
2018-03-07T09:20:04.009Z,971.62
2018-03-07T09:21:04.002Z,971.64
2018-03-07T09:22:03.998Z,971.63
2018-03-07T09:23:03.996Z,971.56
2018-03-07T09:24:03.994Z,971.61
2018-03-07T09:25:03.990Z,971.59
2018-03-07T09:26:03.990Z,971.63
2018-03-07T09:27:03.984Z,971.66
2018-03-07T09:28:03.985Z,971.67
2018-03-07T09:29:04.045Z,971.64
2018-03-07T09:30:03.982Z,971.56
2018-03-07T09:31:03.980Z,971.53
2018-03-07T09:32:03.975Z,971.63
2018-03-07T09:33:03.974Z,971.65
2018-03-07T09:34:03.970Z,971.67
2018-03-07T09:35:03.969Z,971.68
2018-03-07T09:36:03.965Z,971.7
2018-03-07T09:37:03.964Z,971.76
2018-03-07T09:38:03.968Z,971.71
2018-03-07T09:39:03.963Z,971.79
2018-03-07T09:40:03.961Z,971.79
2018-03-07T09:41:03.958Z,971.82
2018-03-07T09:42:03.954Z,971.86
2018-03-07T09:43:03.962Z,971.89
2018-03-07T09:44:03.950Z,971.89
2018-03-07T09:45:03.950Z,971.9
2018-03-07T09:46:03.946Z,971.84
2018-03-07T09:47:03.944Z,971.92
2018-03-07T09:48:03.950Z,971.9
2018-03-07T09:49:03.943Z,971.92
2018-03-07T09:50:03.939Z,971.99
2018-03-07T09:51:03.964Z,972.06
2018-03-07T09:52:03.933Z,971.91
2018-03-07T09:53:03.930Z,972
2018-03-07T09:54:03.929Z,972.05
2018-03-07T09:55:03.926Z,972.04
2018-03-07T09:56:03.931Z,972.04
2018-03-07T09:57:03.920Z,972.01
2018-03-07T09:58:03.920Z,972.06
2018-03-07T09:59:03.915Z,972.15
2018-03-07T10:00:03.922Z,972.17
2018-03-07T10:01:03.911Z,972.16
2018-03-07T10:02:04.249Z,972.17
2018-03-07T10:03:03.905Z,972.22
2018-03-07T10:04:03.904Z,972.14
2018-03-07T10:05:03.902Z,972.19
2018-03-07T10:06:03.901Z,972.17
2018-03-07T10:07:03.924Z,972.2
2018-03-07T10:08:03.894Z,972.23
2018-03-07T10:09:03.896Z,972.25
2018-03-07T10:10:03.890Z,972.3
2018-03-07T10:11:03.888Z,972.28
2018-03-07T10:12:03.885Z,972.35
2018-03-07T10:13:03.883Z,972.36
2018-03-07T10:14:03.880Z,972.42
2018-03-07T10:15:03.878Z,972.43
2018-03-07T10:16:03.893Z,972.4
2018-03-07T10:17:05.327Z,972.37
2018-03-07T10:18:03.872Z,972.28
2018-03-07T10:19:03.870Z,972.3
2018-03-07T10:20:03.867Z,972.32
2018-03-07T10:21:03.889Z,972.22
2018-03-07T10:22:03.866Z,972.25
2018-03-07T10:23:03.862Z,972.1
2018-03-07T10:24:03.863Z,972.1
2018-03-07T10:25:03.856Z,972.11
2018-03-07T10:26:03.854Z,972.1
2018-03-07T10:27:03.852Z,972.17
2018-03-07T10:28:03.855Z,972.19
2018-03-07T10:58:02.066Z,972.54
2018-03-07T10:58:59.664Z,972.54
2018-03-07T10:59:59.595Z,972.54
2018-03-07T11:00:59.585Z,972.61
2018-03-07T11:01:59.578Z,972.55
2018-03-07T11:02:59.572Z,972.58
2018-03-07T11:03:59.567Z,972.6
2018-03-07T11:04:59.580Z,972.66
2018-03-07T11:05:59.554Z,972.61
2018-03-07T11:06:59.554Z,972.63
2018-03-07T11:07:59.546Z,972.62
2018-03-07T11:08:59.541Z,972.67
2018-03-07T11:09:59.536Z,972.62
2018-03-07T11:10:59.531Z,972.65
2018-03-07T11:11:59.530Z,972.66
2018-03-07T11:12:59.531Z,972.62
2018-03-07T11:13:59.525Z,972.61
2018-03-07T11:14:59.526Z,972.65
2018-03-07T11:15:59.516Z,972.63
2018-03-07T11:16:59.518Z,972.59
2018-03-07T11:17:59.509Z,972.62
2018-03-07T11:18:59.535Z,972.61
2018-03-07T11:19:59.509Z,972.63
2018-03-07T11:20:59.501Z,972.61
2018-03-07T11:21:59.497Z,972.57
2018-03-07T11:22:59.498Z,972.61
2018-03-07T11:23:59.492Z,972.51
2018-03-07T11:24:59.491Z,972.54
2018-03-07T11:25:59.492Z,972.56
2018-03-07T11:26:59.510Z,972.61
2018-03-07T11:27:59.487Z,972.6
2018-03-07T11:28:59.483Z,972.65
2018-03-07T11:29:59.479Z,972.6
2018-03-07T11:30:59.475Z,972.77
2018-03-07T11:31:59.477Z,972.7
2018-03-07T11:32:59.493Z,972.66
2018-03-07T11:33:59.480Z,972.65
2018-03-07T11:34:59.466Z,972.67
2018-03-07T11:35:59.466Z,972.64
2018-03-07T11:36:59.468Z,972.7
2018-03-07T11:37:59.459Z,972.7
2018-03-07T11:38:59.459Z,972.65
2018-03-07T11:39:59.456Z,972.61
2018-03-07T11:40:59.453Z,972.72
2018-03-07T11:41:59.451Z,972.7
2018-03-07T11:42:59.451Z,972.7
2018-03-07T11:43:59.448Z,972.71
2018-03-07T11:44:59.457Z,972.62
2018-03-07T11:45:59.445Z,972.59
2018-03-07T11:46:59.443Z,972.7
2018-03-07T11:47:59.440Z,972.66
2018-03-07T11:48:59.448Z,972.67
2018-03-07T11:49:59.437Z,972.57
2018-03-07T11:50:59.434Z,972.66
2018-03-07T11:51:59.432Z,972.68
2018-03-07T11:52:59.436Z,972.63
2018-03-07T11:53:59.428Z,972.62
2018-03-07T11:54:59.427Z,972.65
2018-03-07T11:55:59.423Z,972.61
2018-03-07T11:56:59.425Z,972.6
2018-03-07T11:57:59.422Z,972.61
2018-03-07T11:58:59.420Z,972.68
2018-03-07T11:59:59.422Z,972.72
2018-03-07T12:00:59.415Z,972.63
2018-03-07T12:01:59.414Z,972.67
2018-03-07T12:02:59.414Z,972.7
2018-03-07T12:03:59.408Z,972.7
2018-03-07T12:04:59.410Z,972.74
2018-03-07T12:05:59.406Z,972.66
2018-03-07T12:06:59.403Z,972.68
2018-03-07T12:07:59.401Z,972.63
2018-03-07T12:08:59.404Z,972.66
2018-03-07T12:09:59.400Z,972.72
2018-03-07T12:10:59.396Z,972.66
2018-03-07T12:11:59.402Z,972.72
2018-03-07T12:12:59.390Z,972.68
2018-03-07T12:13:59.437Z,972.62
2018-03-07T12:14:59.385Z,972.57
2018-03-07T12:15:59.384Z,972.62
2018-03-07T12:16:59.383Z,972.63
2018-03-07T12:17:59.380Z,972.61
2018-03-07T12:18:59.378Z,972.57
2018-03-07T12:19:59.388Z,972.53
2018-03-07T12:20:59.374Z,972.54
2018-03-07T12:21:59.372Z,972.55
2018-03-07T12:22:59.372Z,972.64
2018-03-07T12:23:59.370Z,972.49
2018-03-07T12:24:59.368Z,972.53
2018-03-07T12:25:59.365Z,972.53
2018-03-07T12:26:59.366Z,972.52
2018-03-07T12:27:59.363Z,972.65
2018-03-07T12:29:00.712Z,972.59
2018-03-07T12:29:59.358Z,972.72
2018-03-07T12:30:59.359Z,972.64
2018-03-07T12:31:59.356Z,972.68
2018-03-07T12:32:59.354Z,972.7
2018-03-07T12:33:59.353Z,972.68
2018-03-07T12:34:59.351Z,972.59
2018-03-07T12:35:59.350Z,972.6
2018-03-07T12:36:59.349Z,972.64
2018-03-07T12:37:59.346Z,972.61
2018-03-07T12:38:59.345Z,972.54
2018-03-07T12:39:59.343Z,972.61
2018-03-07T12:40:59.341Z,972.61
2018-03-07T12:41:59.339Z,972.66
2018-03-07T12:42:59.337Z,972.56
2018-03-07T12:43:59.336Z,972.58
2018-03-07T12:44:59.334Z,972.6
2018-03-07T12:45:59.333Z,972.53
2018-03-07T12:46:59.333Z,972.55
2018-03-07T12:47:59.330Z,972.57
2018-03-07T12:48:59.329Z,972.63
2018-03-07T12:49:59.328Z,972.67
2018-03-07T12:50:59.326Z,972.65
2018-03-07T12:51:59.324Z,972.65
2018-03-07T12:52:59.322Z,972.72
2018-03-07T12:53:59.322Z,972.66
2018-03-07T12:54:59.319Z,972.71
2018-03-07T12:55:59.319Z,972.63
2018-03-07T12:56:59.317Z,972.67
2018-03-07T12:57:59.314Z,972.68
2018-03-07T12:58:59.315Z,972.63
2018-03-07T12:59:59.319Z,972.65
2018-03-07T13:00:59.327Z,972.61
2018-03-07T13:01:59.309Z,972.68
2018-03-07T13:02:59.308Z,972.65
2018-03-07T13:03:59.309Z,972.62
2018-03-07T13:04:59.308Z,972.71
2018-03-07T13:05:59.307Z,972.71
2018-03-07T13:06:59.306Z,972.61
2018-03-07T13:07:59.303Z,972.66
2018-03-07T13:08:59.301Z,972.68
2018-03-07T13:09:59.300Z,972.7